sensor_id;sensor_type;location;lat;lon;timestamp;pressure;altitude;pressure_sealevel;temperature;humidity
79131;BME280;68530;45.194;9.142;2023-05-14T00:02:06;100680.31;;;15.30;67.62
79131;BME280;68530;45.194;9.142;2023-05-14T00:04:31;100683.84;;;15.31;67.67
79131;BME280;68530;45.194;9.142;2023-05-14T00:06:56;100678.41;;;15.32;67.88
79131;BME280;68530;45.194;9.142;2023-05-14T00:09:22;100679.53;;;15.28;68.17
79131;BME280;68530;45.194;9.142;2023-05-14T00:11:51;100666.44;;;15.25;68.08
79131;BME280;68530;45.194;9.142;2023-05-14T00:14:16;100676.88;;;15.28;68.46
79131;BME280;68530;45.194;9.142;2023-05-14T00:16:42;100673.63;;;15.23;68.68
79131;BME280;68530;45.194;9.142;2023-05-14T00:19:07;100674.16;;;15.30;68.51
79131;BME280;68530;45.194;9.142;2023-05-14T00:21:32;100661.88;;;15.27;68.55
79131;BME280;68530;45.194;9.142;2023-05-14T00:23:58;100656.22;;;15.33;68.34
79131;BME280;68530;45.194;9.142;2023-05-14T00:26:23;100653.91;;;15.27;68.86
79131;BME280;68530;45.194;9.142;2023-05-14T00:28:49;100649.78;;;15.22;68.99
79131;BME280;68530;45.194;9.142;2023-05-14T00:31:14;100654.84;;;15.26;68.86
79131;BME280;68530;45.194;9.142;2023-05-14T00:33:40;100654.91;;;15.25;69.20
79131;BME280;68530;45.194;9.142;2023-05-14T00:36:05;100647.38;;;15.17;69.47
79131;BME280;68530;45.194;9.142;2023-05-14T00:38:31;100655.09;;;15.22;69.36
79131;BME280;68530;45.194;9.142;2023-05-14T00:40:56;100643.38;;;15.26;69.15
79131;BME280;68530;45.194;9.142;2023-05-14T00:43:22;100646.88;;;15.26;69.16
79131;BME280;68530;45.194;9.142;2023-05-14T00:45:53;100642.72;;;15.04;70.02
79131;BME280;68530;45.194;9.142;2023-05-14T00:48:19;100644.31;;;14.91;70.11
79131;BME280;68530;45.194;9.142;2023-05-14T00:50:45;100639.41;;;14.83;70.38
79131;BME280;68530;45.194;9.142;2023-05-14T00:53:11;100646.22;;;15.05;70.01
79131;BME280;68530;45.194;9.142;2023-05-14T00:55:37;100633.13;;;15.02;70.37
79131;BME280;68530;45.194;9.142;2023-05-14T00:58:08;100637.84;;;15.13;69.94
79131;BME280;68530;45.194;9.142;2023-05-14T01:00:34;100636.34;;;14.91;71.04
79131;BME280;68530;45.194;9.142;2023-05-14T01:03:00;100633.09;;;14.86;71.11
79131;BME280;68530;45.194;9.142;2023-05-14T01:05:30;100630.28;;;14.89;71.14
79131;BME280;68530;45.194;9.142;2023-05-14T01:08:06;100628.47;;;14.89;71.03
79131;BME280;68530;45.194;9.142;2023-05-14T01:13:26;100613.94;;;14.97;71.13
79131;BME280;68530;45.194;9.142;2023-05-14T01:15:55;100619.78;;;15.03;71.09
79131;BME280;68530;45.194;9.142;2023-05-14T01:18:22;100622.25;;;15.06;71.09
79131;BME280;68530;45.194;9.142;2023-05-14T01:20:53;100618.91;;;15.03;71.15
79131;BME280;68530;45.194;9.142;2023-05-14T01:23:18;100608.63;;;14.97;70.91
79131;BME280;68530;45.194;9.142;2023-05-14T01:25:44;100607.75;;;14.96;70.84
79131;BME280;68530;45.194;9.142;2023-05-14T01:28:27;100617.97;;;15.04;71.19
79131;BME280;68530;45.194;9.142;2023-05-14T01:31:05;100622.50;;;15.02;71.17
79131;BME280;68530;45.194;9.142;2023-05-14T01:33:32;100618.38;;;14.96;71.03
79131;BME280;68530;45.194;9.142;2023-05-14T01:35:59;100625.00;;;14.71;72.22
79131;BME280;68530;45.194;9.142;2023-05-14T01:38:26;100614.25;;;14.90;71.72
79131;BME280;68530;45.194;9.142;2023-05-14T01:40:55;100608.94;;;14.90;71.38
79131;BME280;68530;45.194;9.142;2023-05-14T01:43:21;100613.81;;;14.82;71.72
79131;BME280;68530;45.194;9.142;2023-05-14T01:45:47;100601.25;;;14.68;71.92
79131;BME280;68530;45.194;9.142;2023-05-14T01:48:13;100606.69;;;14.83;71.98
79131;BME280;68530;45.194;9.142;2023-05-14T01:50:39;100611.31;;;14.61;72.66
79131;BME280;68530;45.194;9.142;2023-05-14T01:53:04;100600.94;;;14.57;72.38
79131;BME280;68530;45.194;9.142;2023-05-14T01:55:29;100609.44;;;14.63;72.59
79131;BME280;68530;45.194;9.142;2023-05-14T01:57:55;100586.50;;;14.45;73.25
79131;BME280;68530;45.194;9.142;2023-05-14T02:00:22;100585.19;;;14.54;72.77
79131;BME280;68530;45.194;9.142;2023-05-14T02:02:48;100588.22;;;14.46;72.59
79131;BME280;68530;45.194;9.142;2023-05-14T02:05:13;100580.47;;;14.59;71.84
79131;BME280;68530;45.194;9.142;2023-05-14T02:07:39;100587.53;;;14.25;73.65
79131;BME280;68530;45.194;9.142;2023-05-14T02:10:05;100581.81;;;14.32;73.25
79131;BME280;68530;45.194;9.142;2023-05-14T02:12:30;100575.81;;;14.29;73.26
79131;BME280;68530;45.194;9.142;2023-05-14T02:14:56;100594.63;;;14.59;72.71
79131;BME280;68530;45.194;9.142;2023-05-14T02:17:21;100591.69;;;14.64;72.39
79131;BME280;68530;45.194;9.142;2023-05-14T02:19:46;100598.28;;;14.57;72.58
79131;BME280;68530;45.194;9.142;2023-05-14T02:22:12;100606.25;;;14.74;72.58
79131;BME280;68530;45.194;9.142;2023-05-14T02:24:37;100583.28;;;14.73;72.42
79131;BME280;68530;45.194;9.142;2023-05-14T02:27:03;100579.47;;;14.61;72.59
79131;BME280;68530;45.194;9.142;2023-05-14T02:29:29;100584.06;;;14.75;72.88
79131;BME280;68530;45.194;9.142;2023-05-14T02:31:54;100586.09;;;14.70;73.12
79131;BME280;68530;45.194;9.142;2023-05-14T02:34:20;100577.59;;;14.63;73.63
79131;BME280;68530;45.194;9.142;2023-05-14T02:36:45;100569.28;;;14.70;73.66
79131;BME280;68530;45.194;9.142;2023-05-14T02:39:10;100548.47;;;14.62;73.96
79131;BME280;68530;45.194;9.142;2023-05-14T02:41:36;100554.53;;;14.64;74.64
79131;BME280;68530;45.194;9.142;2023-05-14T02:44:01;100567.81;;;14.64;74.13
79131;BME280;68530;45.194;9.142;2023-05-14T02:46:26;100554.94;;;14.56;74.10
79131;BME280;68530;45.194;9.142;2023-05-14T02:48:52;100558.53;;;14.55;74.70
79131;BME280;68530;45.194;9.142;2023-05-14T02:51:18;100563.78;;;14.57;74.79
79131;BME280;68530;45.194;9.142;2023-05-14T02:53:45;100563.44;;;14.63;74.76
79131;BME280;68530;45.194;9.142;2023-05-14T02:56:10;100557.41;;;14.43;74.95
79131;BME280;68530;45.194;9.142;2023-05-14T02:58:35;100559.47;;;14.54;75.25
79131;BME280;68530;45.194;9.142;2023-05-14T03:01:01;100562.13;;;14.54;75.35
79131;BME280;68530;45.194;9.142;2023-05-14T03:03:28;100559.19;;;14.25;76.26
79131;BME280;68530;45.194;9.142;2023-05-14T03:05:53;100557.19;;;13.95;77.59
79131;BME280;68530;45.194;9.142;2023-05-14T03:08:19;100555.22;;;13.99;77.38
79131;BME280;68530;45.194;9.142;2023-05-14T03:10:44;100558.50;;;13.86;78.31
79131;BME280;68530;45.194;9.142;2023-05-14T03:13:10;100545.53;;;13.98;77.42
79131;BME280;68530;45.194;9.142;2023-05-14T03:15:35;100555.91;;;13.85;77.83
79131;BME280;68530;45.194;9.142;2023-05-14T03:18:00;100547.13;;;14.02;77.42
79131;BME280;68530;45.194;9.142;2023-05-14T03:20:26;100546.31;;;14.17;77.09
79131;BME280;68530;45.194;9.142;2023-05-14T03:22:51;100555.13;;;14.35;77.14
79131;BME280;68530;45.194;9.142;2023-05-14T03:25:17;100549.13;;;14.32;76.57
79131;BME280;68530;45.194;9.142;2023-05-14T03:27:42;100546.47;;;14.14;76.85
79131;BME280;68530;45.194;9.142;2023-05-14T03:30:08;100549.22;;;13.95;77.43
79131;BME280;68530;45.194;9.142;2023-05-14T03:32:35;100546.03;;;14.06;77.74
79131;BME280;68530;45.194;9.142;2023-05-14T03:35:01;100548.13;;;14.17;77.19
79131;BME280;68530;45.194;9.142;2023-05-14T03:37:26;100554.44;;;14.14;77.22
79131;BME280;68530;45.194;9.142;2023-05-14T03:39:52;100559.91;;;14.29;76.82
79131;BME280;68530;45.194;9.142;2023-05-14T03:42:17;100552.72;;;14.31;76.75
79131;BME280;68530;45.194;9.142;2023-05-14T03:44:43;100552.31;;;14.39;76.89
79131;BME280;68530;45.194;9.142;2023-05-14T03:47:08;100553.03;;;14.42;76.66
79131;BME280;68530;45.194;9.142;2023-05-14T03:49:33;100546.63;;;14.46;77.25
79131;BME280;68530;45.194;9.142;2023-05-14T03:51:59;100547.38;;;14.48;76.81
79131;BME280;68530;45.194;9.142;2023-05-14T03:54:25;100548.16;;;14.50;76.83
79131;BME280;68530;45.194;9.142;2023-05-14T03:56:50;100538.75;;;14.45;76.55
79131;BME280;68530;45.194;9.142;2023-05-14T03:59:16;100532.50;;;14.46;76.94
79131;BME280;68530;45.194;9.142;2023-05-14T04:01:42;100542.56;;;14.57;77.01
79131;BME280;68530;45.194;9.142;2023-05-14T04:04:07;100542.56;;;14.57;76.73
79131;BME280;68530;45.194;9.142;2023-05-14T04:06:33;100545.59;;;14.49;76.03
79131;BME280;68530;45.194;9.142;2023-05-14T04:08:58;100533.97;;;14.52;76.72
79131;BME280;68530;45.194;9.142;2023-05-14T04:11:23;100531.06;;;14.56;76.54
79131;BME280;68530;45.194;9.142;2023-05-14T04:13:49;100543.31;;;14.59;76.08
79131;BME280;68530;45.194;9.142;2023-05-14T04:16:14;100540.09;;;14.36;76.42
79131;BME280;68530;45.194;9.142;2023-05-14T04:18:40;100539.06;;;14.39;76.24
79131;BME280;68530;45.194;9.142;2023-05-14T04:21:05;100538.59;;;14.48;76.14
79131;BME280;68530;45.194;9.142;2023-05-14T04:23:30;100536.78;;;14.48;76.76
79131;BME280;68530;45.194;9.142;2023-05-14T04:25:56;100534.81;;;14.52;76.12
79131;BME280;68530;45.194;9.142;2023-05-14T04:28:22;100518.19;;;14.48;76.58
79131;BME280;68530;45.194;9.142;2023-05-14T04:30:48;100528.50;;;14.55;76.18
79131;BME280;68530;45.194;9.142;2023-05-14T04:33:13;100533.88;;;14.53;76.83
79131;BME280;68530;45.194;9.142;2023-05-14T04:35:38;100530.22;;;14.56;76.34
79131;BME280;68530;45.194;9.142;2023-05-14T04:38:04;100532.41;;;14.47;76.43
79131;BME280;68530;45.194;9.142;2023-05-14T04:40:30;100523.50;;;14.48;76.67
79131;BME280;68530;45.194;9.142;2023-05-14T04:42:56;100535.53;;;14.56;76.28
79131;BME280;68530;45.194;9.142;2023-05-14T04:45:21;100530.06;;;14.59;76.94
79131;BME280;68530;45.194;9.142;2023-05-14T04:47:47;100531.94;;;14.57;76.40
79131;BME280;68530;45.194;9.142;2023-05-14T04:50:12;100502.31;;;14.31;76.71
79131;BME280;68530;45.194;9.142;2023-05-14T04:52:38;100526.53;;;14.25;77.02
79131;BME280;68530;45.194;9.142;2023-05-14T04:55:04;100516.28;;;14.34;76.76
79131;BME280;68530;45.194;9.142;2023-05-14T04:57:30;100522.38;;;14.37;76.94
79131;BME280;68530;45.194;9.142;2023-05-14T04:59:55;100517.16;;;14.35;76.75
79131;BME280;68530;45.194;9.142;2023-05-14T05:02:20;100515.00;;;14.42;76.41
79131;BME280;68530;45.194;9.142;2023-05-14T05:04:46;100514.09;;;14.43;76.33
79131;BME280;68530;45.194;9.142;2023-05-14T05:07:11;100509.72;;;14.42;76.79
79131;BME280;68530;45.194;9.142;2023-05-14T05:09:37;100518.72;;;14.39;76.76
79131;BME280;68530;45.194;9.142;2023-05-14T05:12:03;100516.81;;;14.41;76.82
79131;BME280;68530;45.194;9.142;2023-05-14T05:14:29;100513.66;;;14.50;76.97
79131;BME280;68530;45.194;9.142;2023-05-14T05:16:54;100512.91;;;14.48;76.78
79131;BME280;68530;45.194;9.142;2023-05-14T05:19:19;100517.13;;;14.53;76.16
79131;BME280;68530;45.194;9.142;2023-05-14T05:21:45;100509.81;;;14.40;76.55
79131;BME280;68530;45.194;9.142;2023-05-14T05:24:10;100517.16;;;14.35;76.66
79131;BME280;68530;45.194;9.142;2023-05-14T05:26:37;100519.31;;;14.44;76.66
79131;BME280;68530;45.194;9.142;2023-05-14T05:29:04;100506.16;;;14.59;76.91
79131;BME280;68530;45.194;9.142;2023-05-14T05:31:30;100509.06;;;14.54;76.14
79131;BME280;68530;45.194;9.142;2023-05-14T05:33:57;100504.69;;;14.53;76.50
79131;BME280;68530;45.194;9.142;2023-05-14T05:36:23;100507.28;;;14.55;76.34
79131;BME280;68530;45.194;9.142;2023-05-14T05:38:48;100505.03;;;14.47;76.39
79131;BME280;68530;45.194;9.142;2023-05-14T05:41:13;100521.38;;;14.55;76.66
79131;BME280;68530;45.194;9.142;2023-05-14T05:43:39;100510.25;;;14.48;77.15
79131;BME280;68530;45.194;9.142;2023-05-14T05:46:05;100516.31;;;14.50;77.05
79131;BME280;68530;45.194;9.142;2023-05-14T05:48:31;100520.41;;;14.40;77.36
79131;BME280;68530;45.194;9.142;2023-05-14T05:50:56;100519.25;;;14.46;77.23
79131;BME280;68530;45.194;9.142;2023-05-14T05:53:21;100525.34;;;14.64;77.28
79131;BME280;68530;45.194;9.142;2023-05-14T05:55:47;100528.94;;;14.63;77.41
79131;BME280;68530;45.194;9.142;2023-05-14T05:58:12;100525.19;;;14.67;77.30
79131;BME280;68530;45.194;9.142;2023-05-14T06:00:40;100517.78;;;14.74;77.19
79131;BME280;68530;45.194;9.142;2023-05-14T06:03:05;100508.34;;;14.68;77.67
79131;BME280;68530;45.194;9.142;2023-05-14T06:05:31;100526.19;;;14.82;77.45
79131;BME280;68530;45.194;9.142;2023-05-14T06:07:56;100528.44;;;14.90;76.48
79131;BME280;68530;45.194;9.142;2023-05-14T06:10:22;100531.41;;;14.84;76.51
79131;BME280;68530;45.194;9.142;2023-05-14T06:12:47;100512.06;;;14.64;76.50
79131;BME280;68530;45.194;9.142;2023-05-14T06:15:13;100528.41;;;14.74;76.60
79131;BME280;68530;45.194;9.142;2023-05-14T06:17:38;100526.03;;;14.85;75.95
79131;BME280;68530;45.194;9.142;2023-05-14T06:20:04;100530.41;;;14.86;76.61
79131;BME280;68530;45.194;9.142;2023-05-14T06:22:30;100520.97;;;14.81;76.16
79131;BME280;68530;45.194;9.142;2023-05-14T06:24:55;100525.25;;;14.83;75.97
79131;BME280;68530;45.194;9.142;2023-05-14T06:27:21;100522.44;;;14.86;75.91
79131;BME280;68530;45.194;9.142;2023-05-14T06:29:46;100516.69;;;14.94;76.01
79131;BME280;68530;45.194;9.142;2023-05-14T06:32:11;100537.00;;;14.95;76.52
79131;BME280;68530;45.194;9.142;2023-05-14T06:34:40;100527.25;;;14.96;75.55
79131;BME280;68530;45.194;9.142;2023-05-14T06:37:05;100520.47;;;14.90;76.16
79131;BME280;68530;45.194;9.142;2023-05-14T06:39:31;100518.66;;;14.90;75.43
79131;BME280;68530;45.194;9.142;2023-05-14T06:41:56;100525.53;;;14.95;75.68
79131;BME280;68530;45.194;9.142;2023-05-14T06:44:21;100521.25;;;14.92;76.52
79131;BME280;68530;45.194;9.142;2023-05-14T06:46:47;100515.50;;;15.00;76.61
79131;BME280;68530;45.194;9.142;2023-05-14T06:49:12;100529.56;;;14.86;75.80
79131;BME280;68530;45.194;9.142;2023-05-14T06:51:37;100516.75;;;14.76;75.46
79131;BME280;68530;45.194;9.142;2023-05-14T06:54:04;100526.72;;;14.89;75.70
79131;BME280;68530;45.194;9.142;2023-05-14T06:56:30;100531.44;;;15.00;75.38
79131;BME280;68530;45.194;9.142;2023-05-14T06:58:55;100532.16;;;15.03;75.79
79131;BME280;68530;45.194;9.142;2023-05-14T07:01:21;100519.94;;;14.99;75.29
79131;BME280;68530;45.194;9.142;2023-05-14T07:03:46;100521.06;;;14.79;75.67
79131;BME280;68530;45.194;9.142;2023-05-14T07:06:11;100526.56;;;14.92;75.42
79131;BME280;68530;45.194;9.142;2023-05-14T07:08:38;100536.41;;;15.06;75.62
79131;BME280;68530;45.194;9.142;2023-05-14T07:11:03;100526.47;;;15.10;75.66
79131;BME280;68530;45.194;9.142;2023-05-14T07:13:28;100516.63;;;15.12;75.87
79131;BME280;68530;45.194;9.142;2023-05-14T07:15:54;100522.03;;;15.10;74.15
79131;BME280;68530;45.194;9.142;2023-05-14T07:18:22;100528.72;;;15.01;74.51
79131;BME280;68530;45.194;9.142;2023-05-14T07:20:48;100529.59;;;15.18;74.74
79131;BME280;68530;45.194;9.142;2023-05-14T07:23:13;100524.28;;;15.18;74.50
79131;BME280;68530;45.194;9.142;2023-05-14T07:25:39;100521.78;;;15.31;74.89
79131;BME280;68530;45.194;9.142;2023-05-14T07:28:04;100528.38;;;15.40;74.83
79131;BME280;68530;45.194;9.142;2023-05-14T07:30:30;100528.19;;;15.43;74.69
79131;BME280;68530;45.194;9.142;2023-05-14T07:32:55;100521.16;;;15.42;74.41
79131;BME280;68530;45.194;9.142;2023-05-14T07:35:21;100523.63;;;15.45;74.43
79131;BME280;68530;45.194;9.142;2023-05-14T07:37:47;100518.31;;;15.45;74.64
79131;BME280;68530;45.194;9.142;2023-05-14T07:40:12;100522.63;;;15.47;73.77
79131;BME280;68530;45.194;9.142;2023-05-14T07:42:38;100512.16;;;15.44;73.93
79131;BME280;68530;45.194;9.142;2023-05-14T07:45:04;100514.22;;;15.55;74.21
79131;BME280;68530;45.194;9.142;2023-05-14T07:47:29;100507.00;;;15.57;74.21
79131;BME280;68530;45.194;9.142;2023-05-14T07:49:56;100508.53;;;15.61;73.95
79131;BME280;68530;45.194;9.142;2023-05-14T07:52:22;100507.31;;;15.67;74.10
79131;BME280;68530;45.194;9.142;2023-05-14T07:54:47;100500.38;;;15.65;74.71
79131;BME280;68530;45.194;9.142;2023-05-14T07:57:12;100493.75;;;15.72;74.44
79131;BME280;68530;45.194;9.142;2023-05-14T07:59:38;100502.06;;;15.66;72.59
79131;BME280;68530;45.194;9.142;2023-05-14T08:02:03;100498.84;;;15.60;73.55
79131;BME280;68530;45.194;9.142;2023-05-14T08:04:28;100497.25;;;15.72;73.69
79131;BME280;68530;45.194;9.142;2023-05-14T08:06:54;100496.06;;;15.78;74.12
79131;BME280;68530;45.194;9.142;2023-05-14T08:09:22;100489.25;;;15.88;74.67
79131;BME280;68530;45.194;9.142;2023-05-14T08:11:47;100482.06;;;15.90;74.47
79131;BME280;68530;45.194;9.142;2023-05-14T08:14:12;100484.09;;;16.01;73.66
79131;BME280;68530;45.194;9.142;2023-05-14T08:16:38;100481.88;;;15.94;72.63
79131;BME280;68530;45.194;9.142;2023-05-14T08:19:03;100481.34;;;16.03;73.07
79131;BME280;68530;45.194;9.142;2023-05-14T08:21:28;100484.66;;;16.07;73.11
79131;BME280;68530;45.194;9.142;2023-05-14T08:23:54;100485.25;;;16.12;73.38
79131;BME280;68530;45.194;9.142;2023-05-14T08:26:19;100481.19;;;16.21;72.85
79131;BME280;68530;45.194;9.142;2023-05-14T08:28:46;100489.91;;;16.23;72.60
79131;BME280;68530;45.194;9.142;2023-05-14T08:31:11;100488.09;;;16.23;72.21
79131;BME280;68530;45.194;9.142;2023-05-14T08:33:38;100479.47;;;16.19;71.87
79131;BME280;68530;45.194;9.142;2023-05-14T08:36:04;100489.91;;;16.23;71.80
79131;BME280;68530;45.194;9.142;2023-05-14T08:38:30;100488.78;;;16.27;72.32
79131;BME280;68530;45.194;9.142;2023-05-14T08:40:56;100485.91;;;16.30;72.11
79131;BME280;68530;45.194;9.142;2023-05-14T08:43:25;100482.91;;;16.36;72.13
79131;BME280;68530;45.194;9.142;2023-05-14T08:45:57;100482.44;;;16.44;71.23
79131;BME280;68530;45.194;9.142;2023-05-14T08:48:28;100475.47;;;16.41;71.14
79131;BME280;68530;45.194;9.142;2023-05-14T08:50:56;100474.13;;;16.48;71.08
79131;BME280;68530;45.194;9.142;2023-05-14T08:53:22;100474.72;;;16.54;70.72
79131;BME280;68530;45.194;9.142;2023-05-14T08:55:49;100469.00;;;16.60;71.04
79131;BME280;68530;45.194;9.142;2023-05-14T08:58:15;100467.03;;;16.64;70.21
79131;BME280;68530;45.194;9.142;2023-05-14T09:00:41;100463.75;;;16.73;70.48
79131;BME280;68530;45.194;9.142;2023-05-14T09:03:07;100453.97;;;16.73;69.99
79131;BME280;68530;45.194;9.142;2023-05-14T09:05:33;100458.34;;;16.74;69.91
79131;BME280;68530;45.194;9.142;2023-05-14T09:07:59;100454.31;;;16.82;69.74
79131;BME280;68530;45.194;9.142;2023-05-14T09:10:24;100449.97;;;16.81;69.24
79131;BME280;68530;45.194;9.142;2023-05-14T09:12:50;100442.47;;;16.73;68.18
79131;BME280;68530;45.194;9.142;2023-05-14T09:15:16;100440.19;;;16.81;68.69
79131;BME280;68530;45.194;9.142;2023-05-14T09:17:42;100438.06;;;16.86;68.62
79131;BME280;68530;45.194;9.142;2023-05-14T09:20:08;100442.56;;;16.86;68.06
79131;BME280;68530;45.194;9.142;2023-05-14T09:22:34;100434.66;;;16.84;68.43
79131;BME280;68530;45.194;9.142;2023-05-14T09:25:07;100433.97;;;16.81;67.22
79131;BME280;68530;45.194;9.142;2023-05-14T09:27:34;100432.47;;;16.76;66.82
79131;BME280;68530;45.194;9.142;2023-05-14T09:30:10;100431.53;;;16.77;66.93
79131;BME280;68530;45.194;9.142;2023-05-14T09:32:37;100432.69;;;16.73;66.13
79131;BME280;68530;45.194;9.142;2023-05-14T09:35:17;100436.09;;;16.75;66.75
79131;BME280;68530;45.194;9.142;2023-05-14T09:37:45;100436.56;;;16.68;66.26
79131;BME280;68530;45.194;9.142;2023-05-14T09:40:11;100426.59;;;16.71;66.34
79131;BME280;68530;45.194;9.142;2023-05-14T09:42:37;100423.72;;;16.74;66.11
79131;BME280;68530;45.194;9.142;2023-05-14T09:45:03;100422.03;;;16.73;65.65
79131;BME280;68530;45.194;9.142;2023-05-14T09:47:29;100425.44;;;16.75;66.25
79131;BME280;68530;45.194;9.142;2023-05-14T09:49:55;100422.69;;;16.77;65.66
79131;BME280;68530;45.194;9.142;2023-05-14T09:52:23;100421.41;;;16.83;66.10
79131;BME280;68530;45.194;9.142;2023-05-14T09:54:50;100412.94;;;16.90;66.27
79131;BME280;68530;45.194;9.142;2023-05-14T09:57:15;100413.38;;;16.97;66.31
79131;BME280;68530;45.194;9.142;2023-05-14T09:59:41;100406.19;;;16.99;65.49
79131;BME280;68530;45.194;9.142;2023-05-14T10:02:23;100400.28;;;16.94;65.09
79131;BME280;68530;45.194;9.142;2023-05-14T10:04:50;100408.34;;;17.07;65.75
79131;BME280;68530;45.194;9.142;2023-05-14T10:07:21;100404.63;;;17.10;64.29
79131;BME280;68530;45.194;9.142;2023-05-14T10:09:47;100401.22;;;17.08;64.45
79131;BME280;68530;45.194;9.142;2023-05-14T10:12:15;100400.94;;;17.12;64.84
79131;BME280;68530;45.194;9.142;2023-05-14T10:14:47;100381.28;;;17.00;64.27
79131;BME280;68530;45.194;9.142;2023-05-14T10:17:20;100388.56;;;17.11;64.02
79131;BME280;68530;45.194;9.142;2023-05-14T10:19:53;100383.47;;;17.21;64.75
79131;BME280;68530;45.194;9.142;2023-05-14T10:22:26;100389.34;;;17.26;63.48
79131;BME280;68530;45.194;9.142;2023-05-14T10:24:54;100384.38;;;17.35;63.06
79131;BME280;68530;45.194;9.142;2023-05-14T10:27:20;100382.31;;;17.38;63.26
79131;BME280;68530;45.194;9.142;2023-05-14T10:29:53;100360.91;;;17.27;63.44
79131;BME280;68530;45.194;9.142;2023-05-14T10:32:21;100382.75;;;17.45;63.59
79131;BME280;68530;45.194;9.142;2023-05-14T10:34:47;100353.22;;;17.35;63.53
79131;BME280;68530;45.194;9.142;2023-05-14T10:37:14;100364.97;;;17.45;62.62
79131;BME280;68530;45.194;9.142;2023-05-14T10:39:53;100365.59;;;17.49;61.98
79131;BME280;68530;45.194;9.142;2023-05-14T10:42:26;100367.81;;;17.29;59.89
79131;BME280;68530;45.194;9.142;2023-05-14T10:44:56;100358.31;;;17.25;61.49
79131;BME280;68530;45.194;9.142;2023-05-14T10:47:26;100350.97;;;17.29;61.46
79131;BME280;68530;45.194;9.142;2023-05-14T10:49:54;100351.94;;;17.41;61.67
79131;BME280;68530;45.194;9.142;2023-05-14T10:52:20;100352.41;;;17.47;60.93
79131;BME280;68530;45.194;9.142;2023-05-14T10:54:53;100352.28;;;17.49;61.20
79131;BME280;68530;45.194;9.142;2023-05-14T10:57:20;100350.25;;;17.53;61.92
79131;BME280;68530;45.194;9.142;2023-05-14T10:59:47;100333.31;;;17.54;62.27
79131;BME280;68530;45.194;9.142;2023-05-14T11:02:35;100338.09;;;17.61;62.50
79131;BME280;68530;45.194;9.142;2023-05-14T11:05:08;100337.69;;;17.68;62.57
79131;BME280;68530;45.194;9.142;2023-05-14T11:07:36;100332.16;;;17.71;62.72
79131;BME280;68530;45.194;9.142;2023-05-14T11:10:07;100324.88;;;17.73;62.92
79131;BME280;68530;45.194;9.142;2023-05-14T11:12:35;100325.53;;;17.77;63.07
79131;BME280;68530;45.194;9.142;2023-05-14T11:15:03;100331.28;;;17.83;62.96
79131;BME280;68530;45.194;9.142;2023-05-14T11:17:30;100318.69;;;17.85;62.51
79131;BME280;68530;45.194;9.142;2023-05-14T11:19:56;100321.16;;;17.88;62.31
79131;BME280;68530;45.194;9.142;2023-05-14T11:22:22;100329.03;;;17.90;61.81
79131;BME280;68530;45.194;9.142;2023-05-14T11:24:48;100322.84;;;17.89;62.22
79131;BME280;68530;45.194;9.142;2023-05-14T11:27:14;100309.50;;;17.89;62.44
79131;BME280;68530;45.194;9.142;2023-05-14T11:29:44;100313.56;;;17.95;61.60
79131;BME280;68530;45.194;9.142;2023-05-14T11:32:13;100303.97;;;17.93;61.39
79131;BME280;68530;45.194;9.142;2023-05-14T11:34:39;100299.13;;;17.98;61.18
79131;BME280;68530;45.194;9.142;2023-05-14T11:37:06;100284.31;;;17.94;61.00
79131;BME280;68530;45.194;9.142;2023-05-14T11:39:32;100284.72;;;18.00;60.32
79131;BME280;68530;45.194;9.142;2023-05-14T11:42:01;100295.00;;;18.07;61.22
79131;BME280;68530;45.194;9.142;2023-05-14T11:44:27;100283.59;;;17.92;59.69
79131;BME280;68530;45.194;9.142;2023-05-14T11:46:56;100287.50;;;17.99;59.46
79131;BME280;68530;45.194;9.142;2023-05-14T11:49:22;100288.69;;;17.95;59.89
79131;BME280;68530;45.194;9.142;2023-05-14T11:51:48;100284.09;;;17.97;59.87
79131;BME280;68530;45.194;9.142;2023-05-14T11:54:13;100287.50;;;17.99;59.50
79131;BME280;68530;45.194;9.142;2023-05-14T11:56:39;100270.75;;;17.97;58.77
79131;BME280;68530;45.194;9.142;2023-05-14T11:59:05;100274.19;;;18.12;59.83
79131;BME280;68530;45.194;9.142;2023-05-14T12:01:35;100270.84;;;18.21;60.35
79131;BME280;68530;45.194;9.142;2023-05-14T12:04:03;100260.28;;;18.20;59.41
79131;BME280;68530;45.194;9.142;2023-05-14T12:06:31;100258.91;;;18.14;58.24
79131;BME280;68530;45.194;9.142;2023-05-14T12:08:57;100259.75;;;18.14;59.75
79131;BME280;68530;45.194;9.142;2023-05-14T12:11:22;100253.34;;;18.17;58.79
79131;BME280;68530;45.194;9.142;2023-05-14T12:13:48;100257.16;;;18.26;59.71
79131;BME280;68530;45.194;9.142;2023-05-14T12:16:13;100254.50;;;18.26;59.50
79131;BME280;68530;45.194;9.142;2023-05-14T12:18:39;100255.47;;;18.25;58.96
79131;BME280;68530;45.194;9.142;2023-05-14T12:21:04;100252.56;;;18.28;58.90
79131;BME280;68530;45.194;9.142;2023-05-14T12:23:32;100248.31;;;18.25;59.07
79131;BME280;68530;45.194;9.142;2023-05-14T12:26:05;100242.34;;;18.22;58.27
79131;BME280;68530;45.194;9.142;2023-05-14T12:28:31;100250.13;;;18.25;58.93
79131;BME280;68530;45.194;9.142;2023-05-14T12:30:58;100252.78;;;18.25;58.46
79131;BME280;68530;45.194;9.142;2023-05-14T12:33:25;100242.69;;;18.17;58.20
79131;BME280;68530;45.194;9.142;2023-05-14T12:35:53;100227.44;;;18.06;58.52
79131;BME280;68530;45.194;9.142;2023-05-14T12:38:25;100223.53;;;18.23;58.54
79131;BME280;68530;45.194;9.142;2023-05-14T12:40:50;100219.72;;;18.39;58.77
79131;BME280;68530;45.194;9.142;2023-05-14T12:43:16;100220.53;;;18.52;58.26
79131;BME280;68530;45.194;9.142;2023-05-14T12:45:41;100219.06;;;18.48;57.79
79131;BME280;68530;45.194;9.142;2023-05-14T12:48:06;100208.28;;;18.50;58.01
79131;BME280;68530;45.194;9.142;2023-05-14T12:50:32;100214.50;;;18.62;57.92